sensor_id;sensor_type;location;lat;lon;timestamp;pressure;altitude;pressure_sealevel;temperature;humidity
62126;BME280;69591;53.282;6.150;2023-06-10T00:00:54;101914.47;;;20.99;57.08
62126;BME280;69591;53.282;6.150;2023-06-10T00:01:55;101915.66;;;20.98;57.22
62126;BME280;69591;53.282;6.150;2023-06-10T00:02:57;101919.97;;;20.99;57.00
62126;BME280;69591;53.282;6.150;2023-06-10T00:03:58;101912.91;;;20.98;57.37
62126;BME280;69591;53.282;6.150;2023-06-10T00:05:00;101913.66;;;20.98;57.42
62126;BME280;69591;53.282;6.150;2023-06-10T00:06:02;101910.94;;;20.98;57.06
62126;BME280;69591;53.282;6.150;2023-06-10T00:07:03;101905.44;;;20.98;57.07
62126;BME280;69591;53.282;6.150;2023-06-10T00:08:05;101912.53;;;20.99;57.12
62126;BME280;69591;53.282;6.150;2023-06-10T00:09:07;101913.66;;;20.98;57.23
62126;BME280;69591;53.282;6.150;2023-06-10T00:10:08;101910.94;;;20.98;57.06
62126;BME280;69591;53.282;6.150;2023-06-10T00:11:10;101921.91;;;20.98;56.92
62126;BME280;69591;53.282;6.150;2023-06-10T00:12:13;101919.56;;;20.97;57.47
62126;BME280;69591;53.282;6.150;2023-06-10T00:13:14;101906.63;;;20.97;57.08
62126;BME280;69591;53.282;6.150;2023-06-10T00:14:16;101914.84;;;20.97;57.49
62126;BME280;69591;53.282;6.150;2023-06-10T00:15:17;101917.59;;;20.97;57.06
62126;BME280;69591;53.282;6.150;2023-06-10T00:16:19;101919.16;;;20.98;57.01
62126;BME280;69591;53.282;6.150;2023-06-10T00:17:20;101913.66;;;20.98;56.94
62126;BME280;69591;53.282;6.150;2023-06-10T00:18:22;101919.16;;;20.98;57.40
62126;BME280;69591;53.282;6.150;2023-06-10T00:19:23;101913.28;;;20.96;57.06
62126;BME280;69591;53.282;6.150;2023-06-10T00:20:25;101913.66;;;20.98;57.07
62126;BME280;69591;53.282;6.150;2023-06-10T00:21:27;101916.41;;;20.98;56.96
62126;BME280;69591;53.282;6.150;2023-06-10T00:22:28;101912.09;;;20.97;56.84
62126;BME280;69591;53.282;6.150;2023-06-10T00:23:29;101916.41;;;20.98;56.92
62126;BME280;69591;53.282;6.150;2023-06-10T00:24:31;101911.31;;;20.97;56.91
62126;BME280;69591;53.282;6.150;2023-06-10T00:25:32;101905.06;;;20.96;57.43
62126;BME280;69591;53.282;6.150;2023-06-10T00:26:34;101916.81;;;20.97;57.23
62126;BME280;69591;53.282;6.150;2023-06-10T00:27:37;101917.59;;;20.97;57.41
62126;BME280;69591;53.282;6.150;2023-06-10T00:28:38;101921.16;;;20.98;57.40
62126;BME280;69591;53.282;6.150;2023-06-10T00:29:40;101917.59;;;20.97;57.00
62126;BME280;69591;53.282;6.150;2023-06-10T00:30:41;101918.41;;;20.98;56.94
62126;BME280;69591;53.282;6.150;2023-06-10T00:31:44;101918.41;;;20.98;57.40
62126;BME280;69591;53.282;6.150;2023-06-10T00:32:46;101912.09;;;20.97;57.19
62126;BME280;69591;53.282;6.150;2023-06-10T00:33:48;101910.53;;;20.96;57.47
62126;BME280;69591;53.282;6.150;2023-06-10T00:34:49;101914.06;;;20.97;57.15
62126;BME280;69591;53.282;6.150;2023-06-10T00:35:51;101917.59;;;20.97;57.06
62126;BME280;69591;53.282;6.150;2023-06-10T00:36:52;101912.91;;;20.98;57.33
62126;BME280;69591;53.282;6.150;2023-06-10T00:37:54;101921.16;;;20.98;57.37
62126;BME280;69591;53.282;6.150;2023-06-10T00:38:55;101917.59;;;20.97;57.05
62126;BME280;69591;53.282;6.150;2023-06-10T00:39:57;101920.34;;;20.97;57.25
62126;BME280;69591;53.282;6.150;2023-06-10T00:40:59;101916.03;;;20.96;57.50
62126;BME280;69591;53.282;6.150;2023-06-10T00:42:00;101919.16;;;20.98;57.29
62126;BME280;69591;53.282;6.150;2023-06-10T00:43:03;101910.53;;;20.96;57.38
62126;BME280;69591;53.282;6.150;2023-06-10T00:44:05;101916.81;;;20.97;57.61
62126;BME280;69591;53.282;6.150;2023-06-10T00:45:06;101914.06;;;20.97;57.16
62126;BME280;69591;53.282;6.150;2023-06-10T00:46:10;101916.81;;;20.97;57.59
62126;BME280;69591;53.282;6.150;2023-06-10T00:47:12;101923.09;;;20.97;57.18
62126;BME280;69591;53.282;6.150;2023-06-10T00:48:15;101916.81;;;20.97;57.25
62126;BME280;69591;53.282;6.150;2023-06-10T00:49:16;101920.69;;;20.96;57.42
62126;BME280;69591;53.282;6.150;2023-06-10T00:50:18;101921.53;;;20.96;57.38
62126;BME280;69591;53.282;6.150;2023-06-10T00:51:20;101924.66;;;20.98;57.21
62126;BME280;69591;53.282;6.150;2023-06-10T00:52:22;101925.84;;;20.97;56.98
62126;BME280;69591;53.282;6.150;2023-06-10T00:53:25;101915.22;;;20.96;57.16
62126;BME280;69591;53.282;6.150;2023-06-10T00:54:27;101921.53;;;20.96;56.90
62126;BME280;69591;53.282;6.150;2023-06-10T00:55:28;101922.28;;;20.97;57.21
62126;BME280;69591;53.282;6.150;2023-06-10T00:56:30;101922.28;;;20.97;57.13
62126;BME280;69591;53.282;6.150;2023-06-10T00:57:31;101928.59;;;20.97;57.05
62126;BME280;69591;53.282;6.150;2023-06-10T00:58:34;101921.53;;;20.96;57.19
62126;BME280;69591;53.282;6.150;2023-06-10T00:59:36;101924.28;;;20.96;57.38
62126;BME280;69591;53.282;6.150;2023-06-10T01:00:37;101921.53;;;20.96;57.06
62126;BME280;69591;53.282;6.150;2023-06-10T01:01:39;101919.91;;;20.95;57.18
62126;BME280;69591;53.282;6.150;2023-06-10T01:02:41;101921.53;;;20.96;57.40
62126;BME280;69591;53.282;6.150;2023-06-10T01:03:42;101921.53;;;20.96;57.19
62126;BME280;69591;53.282;6.150;2023-06-10T01:04:44;101927.03;;;20.96;57.19
62126;BME280;69591;53.282;6.150;2023-06-10T01:05:46;101918.41;;;20.98;57.41
62126;BME280;69591;53.282;6.150;2023-06-10T01:06:52;101927.03;;;20.96;56.99
62126;BME280;69591;53.282;6.150;2023-06-10T01:07:56;101921.53;;;20.96;57.27
62126;BME280;69591;53.282;6.150;2023-06-10T01:09:03;101919.91;;;20.95;56.89
62126;BME280;69591;53.282;6.150;2023-06-10T01:10:10;101922.66;;;20.95;56.97
62126;BME280;69591;53.282;6.150;2023-06-10T01:11:13;101929.78;;;20.96;57.00
62126;BME280;69591;53.282;6.150;2023-06-10T01:12:19;101927.03;;;20.96;56.90
62126;BME280;69591;53.282;6.150;2023-06-10T01:13:25;101919.91;;;20.95;57.00
62126;BME280;69591;53.282;6.150;2023-06-10T01:14:30;101926.19;;;20.96;57.04
62126;BME280;69591;53.282;6.150;2023-06-10T01:15:34;101925.41;;;20.95;57.52
62126;BME280;69591;53.282;6.150;2023-06-10T01:16:36;101924.28;;;20.96;57.19
62126;BME280;69591;53.282;6.150;2023-06-10T01:17:52;101925.41;;;20.95;57.52
62126;BME280;69591;53.282;6.150;2023-06-10T01:18:54;101921.53;;;20.96;57.06
62126;BME280;69591;53.282;6.150;2023-06-10T01:19:56;101926.19;;;20.96;57.33
62126;BME280;69591;53.282;6.150;2023-06-10T01:20:58;101919.91;;;20.95;57.26
62126;BME280;69591;53.282;6.150;2023-06-10T01:22:01;101925.41;;;20.95;57.35
62126;BME280;69591;53.282;6.150;2023-06-10T01:23:03;101939.13;;;20.95;56.99
62126;BME280;69591;53.282;6.150;2023-06-10T01:24:04;101928.16;;;20.95;56.95
62126;BME280;69591;53.282;6.150;2023-06-10T01:25:06;101929.31;;;20.94;57.04
62126;BME280;69591;53.282;6.150;2023-06-10T01:26:09;101925.41;;;20.95;56.98
62126;BME280;69591;53.282;6.150;2023-06-10T01:27:12;101942.66;;;20.96;57.51
62126;BME280;69591;53.282;6.150;2023-06-10T01:28:17;101930.13;;;20.95;57.02
62126;BME280;69591;53.282;6.150;2023-06-10T01:29:21;101936.38;;;20.95;56.79
62126;BME280;69591;53.282;6.150;2023-06-10T01:30:27;101930.13;;;20.95;57.30
62126;BME280;69591;53.282;6.150;2023-06-10T01:31:32;101937.19;;;20.96;57.28
62126;BME280;69591;53.282;6.150;2023-06-10T01:32:37;101934.81;;;20.94;57.35
62126;BME280;69591;53.282;6.150;2023-06-10T01:33:43;101936.38;;;20.95;57.27
62126;BME280;69591;53.282;6.150;2023-06-10T01:34:46;101930.88;;;20.95;57.34
62126;BME280;69591;53.282;6.150;2023-06-10T01:35:49;101935.63;;;20.95;56.84
62126;BME280;69591;53.282;6.150;2023-06-10T01:36:51;101936.38;;;20.95;56.87
62126;BME280;69591;53.282;6.150;2023-06-10T01:37:56;101938.34;;;20.95;57.36
62126;BME280;69591;53.282;6.150;2023-06-10T01:39:00;101935.63;;;20.95;56.92
62126;BME280;69591;53.282;6.150;2023-06-10T01:40:02;101940.31;;;20.94;57.30
62126;BME280;69591;53.282;6.150;2023-06-10T01:41:04;101938.34;;;20.95;57.01
62126;BME280;69591;53.282;6.150;2023-06-10T01:42:07;101946.59;;;20.95;56.94
62126;BME280;69591;53.282;6.150;2023-06-10T01:43:10;101944.63;;;20.95;56.97
62126;BME280;69591;53.282;6.150;2023-06-10T01:44:11;101937.56;;;20.94;57.30
62126;BME280;69591;53.282;6.150;2023-06-10T01:45:14;101943.06;;;20.94;57.13
62126;BME280;69591;53.282;6.150;2023-06-10T01:46:15;101934.81;;;20.94;56.93
62126;BME280;69591;53.282;6.150;2023-06-10T01:47:17;101940.31;;;20.94;57.15
62126;BME280;69591;53.282;6.150;2023-06-10T01:48:19;101940.31;;;20.94;56.85
62126;BME280;69591;53.282;6.150;2023-06-10T01:49:20;101937.56;;;20.94;57.00
62126;BME280;69591;53.282;6.150;2023-06-10T01:50:22;101935.63;;;20.95;56.94
62126;BME280;69591;53.282;6.150;2023-06-10T01:51:23;101936.38;;;20.95;56.83
62126;BME280;69591;53.282;6.150;2023-06-10T01:52:25;101940.31;;;20.94;56.93
62126;BME280;69591;53.282;6.150;2023-06-10T01:53:29;101934.81;;;20.94;57.29
62126;BME280;69591;53.282;6.150;2023-06-10T01:54:31;101944.19;;;20.93;57.12
62126;BME280;69591;53.282;6.150;2023-06-10T01:55:32;101937.56;;;20.94;57.18
62126;BME280;69591;53.282;6.150;2023-06-10T01:56:34;101940.31;;;20.94;57.26
62126;BME280;69591;53.282;6.150;2023-06-10T01:57:36;101945.00;;;20.94;57.40
62126;BME280;69591;53.282;6.150;2023-06-10T01:58:37;101938.72;;;20.93;56.99
62126;BME280;69591;53.282;6.150;2023-06-10T01:59:39;101945.00;;;20.94;57.01
62126;BME280;69591;53.282;6.150;2023-06-10T02:00:40;101934.81;;;20.94;57.04
62126;BME280;69591;53.282;6.150;2023-06-10T02:01:43;101944.19;;;20.93;56.74
62126;BME280;69591;53.282;6.150;2023-06-10T02:02:44;101939.50;;;20.94;56.94
62126;BME280;69591;53.282;6.150;2023-06-10T02:03:46;101937.94;;;20.93;56.86
62126;BME280;69591;53.282;6.150;2023-06-10T02:04:47;101944.19;;;20.93;56.89
62126;BME280;69591;53.282;6.150;2023-06-10T02:05:49;101939.91;;;20.92;57.04
62126;BME280;69591;53.282;6.150;2023-06-10T02:06:51;101933.22;;;20.93;57.26
62126;BME280;69591;53.282;6.150;2023-06-10T02:07:52;101937.56;;;20.94;57.11
62126;BME280;69591;53.282;6.150;2023-06-10T02:08:57;101937.94;;;20.93;57.21
62126;BME280;69591;53.282;6.150;2023-06-10T02:09:58;101938.72;;;20.93;56.76
62126;BME280;69591;53.282;6.150;2023-06-10T02:11:00;101944.19;;;20.93;57.00
62126;BME280;69591;53.282;6.150;2023-06-10T02:12:04;101938.72;;;20.93;57.25
62126;BME280;69591;53.282;6.150;2023-06-10T02:13:05;101938.72;;;20.93;56.80
62126;BME280;69591;53.282;6.150;2023-06-10T02:14:07;101944.19;;;20.93;56.94
62126;BME280;69591;53.282;6.150;2023-06-10T02:15:09;101937.94;;;20.93;56.72
62126;BME280;69591;53.282;6.150;2023-06-10T02:16:11;101936.34;;;20.92;56.92
62126;BME280;69591;53.282;6.150;2023-06-10T02:17:12;101937.16;;;20.92;57.22
62126;BME280;69591;53.282;6.150;2023-06-10T02:18:16;101937.94;;;20.93;57.34
62126;BME280;69591;53.282;6.150;2023-06-10T02:19:17;101942.63;;;20.92;56.86
62126;BME280;69591;53.282;6.150;2023-06-10T02:20:20;101935.19;;;20.93;57.03
62126;BME280;69591;53.282;6.150;2023-06-10T02:21:22;101937.94;;;20.93;57.27
62126;BME280;69591;53.282;6.150;2023-06-10T02:22:23;101933.59;;;20.92;56.84
62126;BME280;69591;53.282;6.150;2023-06-10T02:23:25;101941.84;;;20.92;57.25
62126;BME280;69591;53.282;6.150;2023-06-10T02:24:28;101940.69;;;20.93;56.96
62126;BME280;69591;53.282;6.150;2023-06-10T02:25:30;101943.44;;;20.93;56.81
62126;BME280;69591;53.282;6.150;2023-06-10T02:26:32;101942.63;;;20.92;56.93
62126;BME280;69591;53.282;6.150;2023-06-10T02:27:34;101937.16;;;20.92;57.18
62126;BME280;69591;53.282;6.150;2023-06-10T02:28:36;101942.63;;;20.92;56.89
62126;BME280;69591;53.282;6.150;2023-06-10T02:29:37;101936.34;;;20.92;57.21
62126;BME280;69591;53.282;6.150;2023-06-10T02:30:39;101945.38;;;20.92;57.27
62126;BME280;69591;53.282;6.150;2023-06-10T02:31:41;101941.84;;;20.92;56.81
62126;BME280;69591;53.282;6.150;2023-06-10T02:32:43;101944.59;;;20.92;57.22
62126;BME280;69591;53.282;6.150;2023-06-10T02:33:45;101941.84;;;20.92;56.98
62126;BME280;69591;53.282;6.150;2023-06-10T02:34:46;101941.84;;;20.92;56.85
62126;BME280;69591;53.282;6.150;2023-06-10T02:35:48;101941.84;;;20.92;57.21
62126;BME280;69591;53.282;6.150;2023-06-10T02:36:50;101952.06;;;20.91;56.91
62126;BME280;69591;53.282;6.150;2023-06-10T02:37:53;101947.34;;;20.92;56.89
62126;BME280;69591;53.282;6.150;2023-06-10T02:38:55;101949.31;;;20.91;57.04
62126;BME280;69591;53.282;6.150;2023-06-10T02:39:58;101947.34;;;20.92;57.18
62126;BME280;69591;53.282;6.150;2023-06-10T02:41:01;101952.81;;;20.92;57.15
62126;BME280;69591;53.282;6.150;2023-06-10T02:42:02;101949.31;;;20.91;57.18
62126;BME280;69591;53.282;6.150;2023-06-10T02:43:04;101949.31;;;20.91;56.93
62126;BME280;69591;53.282;6.150;2023-06-10T02:44:07;101945.78;;;20.91;57.28
62126;BME280;69591;53.282;6.150;2023-06-10T02:45:08;101952.06;;;20.91;56.82
62126;BME280;69591;53.282;6.150;2023-06-10T02:46:14;101944.59;;;20.92;57.05
62126;BME280;69591;53.282;6.150;2023-06-10T02:47:17;101952.06;;;20.91;56.85
62126;BME280;69591;53.282;6.150;2023-06-10T02:48:18;101943.81;;;20.91;56.94
62126;BME280;69591;53.282;6.150;2023-06-10T02:49:20;101946.56;;;20.91;56.93
62126;BME280;69591;53.282;6.150;2023-06-10T02:50:21;101952.06;;;20.91;56.85
62126;BME280;69591;53.282;6.150;2023-06-10T02:51:32;101944.22;;;20.90;56.78
62126;BME280;69591;53.282;6.150;2023-06-10T02:52:36;101948.53;;;20.91;57.03
62126;BME280;69591;53.282;6.150;2023-06-10T02:53:37;101951.25;;;20.91;56.87
62126;BME280;69591;53.282;6.150;2023-06-10T02:54:43;101943.41;;;20.89;57.07
62126;BME280;69591;53.282;6.150;2023-06-10T02:55:46;101945.78;;;20.91;56.79
62126;BME280;69591;53.282;6.150;2023-06-10T02:56:50;101940.66;;;20.89;57.04
62126;BME280;69591;53.282;6.150;2023-06-10T02:57:56;101938.72;;;20.90;56.73
62126;BME280;69591;53.282;6.150;2023-06-10T02:58:58;101946.16;;;20.89;56.86
62126;BME280;69591;53.282;6.150;2023-06-10T03:00:02;101949.69;;;20.90;57.02
62126;BME280;69591;53.282;6.150;2023-06-10T03:01:04;101941.47;;;20.90;56.98
62126;BME280;69591;53.282;6.150;2023-06-10T03:02:14;101943.41;;;20.89;56.59
62126;BME280;69591;53.282;6.150;2023-06-10T03:03:21;101940.66;;;20.89;56.88
62126;BME280;69591;53.282;6.150;2023-06-10T03:04:31;101944.22;;;20.90;56.74
62126;BME280;69591;53.282;6.150;2023-06-10T03:05:38;101944.22;;;20.90;56.84
62126;BME280;69591;53.282;6.150;2023-06-10T03:06:41;101941.47;;;20.90;57.32
62126;BME280;69591;53.282;6.150;2023-06-10T03:07:51;101951.66;;;20.89;56.99
62126;BME280;69591;53.282;6.150;2023-06-10T03:08:53;101950.09;;;20.88;56.77
62126;BME280;69591;53.282;6.150;2023-06-10T03:09:55;101948.91;;;20.89;57.11
62126;BME280;69591;53.282;6.150;2023-06-10T03:10:58;101948.91;;;20.89;56.73
62126;BME280;69591;53.282;6.150;2023-06-10T03:11:59;101948.91;;;20.89;56.82
62126;BME280;69591;53.282;6.150;2023-06-10T03:13:04;101948.91;;;20.89;56.80
62126;BME280;69591;53.282;6.150;2023-06-10T03:14:06;101948.91;;;20.89;56.94
62126;BME280;69591;53.282;6.150;2023-06-10T03:15:08;101959.88;;;20.89;56.79
62126;BME280;69591;53.282;6.150;2023-06-10T03:16:10;101947.34;;;20.88;56.76
62126;BME280;69591;53.282;6.150;2023-06-10T03:17:12;101946.16;;;20.89;56.78
62126;BME280;69591;53.282;6.150;2023-06-10T03:18:16;101948.09;;;20.89;56.84
62126;BME280;69591;53.282;6.150;2023-06-10T03:19:18;101953.59;;;20.89;56.78
62126;BME280;69591;53.282;6.150;2023-06-10T03:20:23;101945.34;;;20.89;57.02
62126;BME280;69591;53.282;6.150;2023-06-10T03:21:25;101951.66;;;20.89;57.21
62126;BME280;69591;53.282;6.150;2023-06-10T03:22:27;101948.09;;;20.89;57.10
62126;BME280;69591;53.282;6.150;2023-06-10T03:23:35;101950.09;;;20.88;56.76
62126;BME280;69591;53.282;6.150;2023-06-10T03:24:37;101948.09;;;20.89;56.98
62126;BME280;69591;53.282;6.150;2023-06-10T03:25:39;101948.50;;;20.87;56.68
62126;BME280;69591;53.282;6.150;2023-06-10T03:26:44;101950.09;;;20.88;56.83
62126;BME280;69591;53.282;6.150;2023-06-10T03:27:46;101952.81;;;20.88;56.79
62126;BME280;69591;53.282;6.150;2023-06-10T03:28:47;101947.34;;;20.88;56.95
62126;BME280;69591;53.282;6.150;2023-06-10T03:29:49;101952.81;;;20.88;57.09
62126;BME280;69591;53.282;6.150;2023-06-10T03:30:51;101961.06;;;20.88;56.77
62126;BME280;69591;53.282;6.150;2023-06-10T03:31:55;101957.53;;;20.88;57.10
62126;BME280;69591;53.282;6.150;2023-06-10T03:32:57;101963.81;;;20.88;56.90
62126;BME280;69591;53.282;6.150;2023-06-10T03:34:00;101963.00;;;20.88;57.34
62126;BME280;69591;53.282;6.150;2023-06-10T03:35:02;101961.06;;;20.88;56.81
62126;BME280;69591;53.282;6.150;2023-06-10T03:36:05;101962.22;;;20.87;56.58
62126;BME280;69591;53.282;6.150;2023-06-10T03:37:07;101960.28;;;20.88;56.86
62126;BME280;69591;53.282;6.150;2023-06-10T03:38:09;101956.34;;;20.89;57.12
62126;BME280;69591;53.282;6.150;2023-06-10T03:39:11;101958.31;;;20.88;56.90
62126;BME280;69591;53.282;6.150;2023-06-10T03:40:13;101960.28;;;20.88;57.14
62126;BME280;69591;53.282;6.150;2023-06-10T03:41:18;101958.31;;;20.88;57.05
62126;BME280;69591;53.282;6.150;2023-06-10T03:42:21;101963.81;;;20.88;56.66
62126;BME280;69591;53.282;6.150;2023-06-10T03:43:23;101960.28;;;20.88;56.70
62126;BME280;69591;53.282;6.150;2023-06-10T03:44:25;101963.00;;;20.88;56.99
62126;BME280;69591;53.282;6.150;2023-06-10T03:45:27;101964.97;;;20.87;56.73
62126;BME280;69591;53.282;6.150;2023-06-10T03:46:29;101963.81;;;20.88;56.71
62126;BME280;69591;53.282;6.150;2023-06-10T03:47:32;101968.50;;;20.88;56.59
62126;BME280;69591;53.282;6.150;2023-06-10T03:48:34;101969.31;;;20.88;56.94
62126;BME280;69591;53.282;6.150;2023-06-10T03:49:36;101966.56;;;20.88;56.76
62126;BME280;69591;53.282;6.150;2023-06-10T03:50:38;101969.69;;;20.87;56.78
62126;BME280;69591;53.282;6.150;2023-06-10T03:51:39;101975.94;;;20.87;56.76
62126;BME280;69591;53.282;6.150;2023-06-10T03:52:41;101971.25;;;20.88;57.20
62126;BME280;69591;53.282;6.150;2023-06-10T03:53:43;101972.44;;;20.87;56.71
62126;BME280;69591;53.282;6.150;2023-06-10T03:54:45;101976.75;;;20.88;56.89
62126;BME280;69591;53.282;6.150;2023-06-10T03:55:47;101979.47;;;20.88;57.18
62126;BME280;69591;53.282;6.150;2023-06-10T03:56:50;101967.72;;;20.87;56.53
62126;BME280;69591;53.282;6.150;2023-06-10T03:57:53;101979.47;;;20.88;57.14
62126;BME280;69591;53.282;6.150;2023-06-10T03:58:55;101973.19;;;20.87;57.03
62126;BME280;69591;53.282;6.150;2023-06-10T03:59:57;101978.69;;;20.87;56.97
62126;BME280;69591;53.282;6.150;2023-06-10T04:00:59;101979.47;;;20.88;57.08
62126;BME280;69591;53.282;6.150;2023-06-10T04:02:07;101975.94;;;20.87;56.92
62126;BME280;69591;53.282;6.150;2023-06-10T04:03:08;101972.44;;;20.87;56.73
62126;BME280;69591;53.282;6.150;2023-06-10T04:04:14;101974.78;;;20.88;56.79
62126;BME280;69591;53.282;6.150;2023-06-10T04:05:17;101977.53;;;20.88;57.26
62126;BME280;69591;53.282;6.150;2023-06-10T04:06:18;101978.69;;;20.87;57.13
62126;BME280;69591;53.282;6.150;2023-06-10T04:07:20;101975.19;;;20.87;57.07
62126;BME280;69591;53.282;6.150;2023-06-10T04:08:21;101966.94;;;20.87;56.55
62126;BME280;69591;53.282;6.150;2023-06-10T04:09:23;101973.19;;;20.87;57.17
62126;BME280;69591;53.282;6.150;2023-06-10T04:10:25;101973.19;;;20.87;57.23
62126;BME280;69591;53.282;6.150;2023-06-10T04:11:28;101978.69;;;20.87;57.15
62126;BME280;69591;53.282;6.150;2023-06-10T04:12:32;101979.47;;;20.88;56.94
62126;BME280;69591;53.282;6.150;2023-06-10T04:13:35;101973.19;;;20.87;56.86
62126;BME280;69591;53.282;6.150;2023-06-10T04:14:36;101981.44;;;20.87;57.14
62126;BME280;69591;53.282;6.150;2023-06-10T04:15:39;101979.47;;;20.88;57.05
62126;BME280;69591;53.282;6.150;2023-06-10T04:16:44;101981.44;;;20.87;56.76
62126;BME280;69591;53.282;6.150;2023-06-10T04:17:46;101980.28;;;20.88;56.80
62126;BME280;69591;53.282;6.150;2023-06-10T04:18:48;101979.47;;;20.88;56.78
62126;BME280;69591;53.282;6.150;2023-06-10T04:19:51;101984.97;;;20.88;57.03
62126;BME280;69591;53.282;6.150;2023-06-10T04:20:53;101982.22;;;20.88;56.77
62126;BME280;69591;53.282;6.150;2023-06-10T04:21:54;101978.69;;;20.87;56.98
62126;BME280;69591;53.282;6.150;2023-06-10T04:22:56;101975.94;;;20.87;56.80
62126;BME280;69591;53.282;6.150;2023-06-10T04:23:57;101981.06;;;20.89;57.03
62126;BME280;69591;53.282;6.150;2023-06-10T04:24:59;101980.28;;;20.88;57.26
62126;BME280;69591;53.282;6.150;2023-06-10T04:26:00;101978.69;;;20.87;56.76
62126;BME280;69591;53.282;6.150;2023-06-10T04:27:03;101980.28;;;20.88;56.86
62126;BME280;69591;53.282;6.150;2023-06-10T04:28:05;101983.03;;;20.88;56.79
62126;BME280;69591;53.282;6.150;2023-06-10T04:29:07;101980.28;;;20.88;57.17
62126;BME280;69591;53.282;6.150;2023-06-10T04:30:09;101985.78;;;20.88;56.90
62126;BME280;69591;53.282;6.150;2023-06-10T04:31:12;101980.28;;;20.88;57.07
62126;BME280;69591;53.282;6.150;2023-06-10T04:32:16;101983.03;;;20.88;57.16
62126;BME280;69591;53.282;6.150;2023-06-10T04:33:18;101980.28;;;20.88;57.10
62126;BME280;69591;53.282;6.150;2023-06-10T04:34:19;101978.69;;;20.87;56.79
62126;BME280;69591;53.282;6.150;2023-06-10T04:35:21;101981.84;;;20.89;57.20
62126;BME280;69591;53.282;6.150;2023-06-10T04:36:23;101986.53;;;20.89;57.09
62126;BME280;69591;53.282;6.150;2023-06-10T04:37:25;101985.78;;;20.88;57.04
62126;BME280;69591;53.282;6.150;2023-06-10T04:38:26;101986.53;;;20.89;56.84
62126;BME280;69591;53.282;6.150;2023-06-10T04:39:28;101981.84;;;20.89;57.21
62126;BME280;69591;53.282;6.150;2023-06-10T04:40:30;101981.06;;;20.89;56.81
62126;BME280;69591;53.282;6.150;2023-06-10T04:41:32;101986.53;;;20.89;56.88
62126;BME280;69591;53.282;6.150;2023-06-10T04:42:34;101990.47;;;20.88;56.64
62126;BME280;69591;53.282;6.150;2023-06-10T04:43:36;101986.53;;;20.89;57.12
62126;BME280;69591;53.282;6.150;2023-06-10T04:44:39;101988.53;;;20.88;56.75
62126;BME280;69591;53.282;6.150;2023-06-10T04:45:42;101991.25;;;20.88;56.81
62126;BME280;69591;53.282;6.150;2023-06-10T04:46:43;101987.34;;;20.89;56.82
62126;BME280;69591;53.282;6.150;2023-06-10T04:47:45;101985.78;;;20.88;56.80
62126;BME280;69591;53.282;6.150;2023-06-10T04:48:47;101981.06;;;20.89;56.97
62126;BME280;69591;53.282;6.150;2023-06-10T04:49:48;101992.81;;;20.89;57.15
62126;BME280;69591;53.282;6.150;2023-06-10T04:50:50;101992.81;;;20.89;57.26
62126;BME280;69591;53.282;6.150;2023-06-10T04:51:52;101987.34;;;20.89;56.87
62126;BME280;69591;53.282;6.150;2023-06-10T04:52:54;101985.38;;;20.90;57.16
62126;BME280;69591;53.282;6.150;2023-06-10T04:53:55;101981.84;;;20.89;57.11
62126;BME280;69591;53.282;6.150;2023-06-10T04:54:57;101989.69;;;20.91;56.89
62126;BME280;69591;53.282;6.150;2023-06-10T04:55:59;101998.31;;;20.89;56.79
62126;BME280;69591;53.282;6.150;2023-06-10T04:57:00;101988.13;;;20.90;56.89
62126;BME280;69591;53.282;6.150;2023-06-10T04:58:02;101988.13;;;20.90;57.20
62126;BME280;69591;53.282;6.150;2023-06-10T04:59:03;101989.69;;;20.91;56.89
62126;BME280;69591;53.282;6.150;2023-06-10T05:00:07;101990.50;;;20.91;56.95
62126;BME280;69591;53.282;6.150;2023-06-10T05:01:08;101998.72;;;20.91;57.16
62126;BME280;69591;53.282;6.150;2023-06-10T05:02:10;101995.19;;;20.91;57.20
62126;BME280;69591;53.282;6.150;2023-06-10T05:03:11;101996.00;;;20.91;57.29
62126;BME280;69591;53.282;6.150;2023-06-10T05:04:13;101994.41;;;20.90;57.05
62126;BME280;69591;53.282;6.150;2023-06-10T05:05:14;102000.69;;;20.91;56.89
62126;BME280;69591;53.282;6.150;2023-06-10T05:06:16;101992.44;;;20.91;56.89
62126;BME280;69591;53.282;6.150;2023-06-10T05:07:17;101998.72;;;20.91;57.25
62126;BME280;69591;53.282;6.150;2023-06-10T05:08:19;101995.19;;;20.91;56.95
62126;BME280;69591;53.282;6.150;2023-06-10T05:09:21;101996.00;;;20.91;57.21
62126;BME280;69591;53.282;6.150;2023-06-10T05:10:23;101998.72;;;20.91;57.21
62126;BME280;69591;53.282;6.150;2023-06-10T05:11:24;101986.94;;;20.91;56.79
62126;BME280;69591;53.282;6.150;2023-06-10T05:12:26;101990.50;;;20.91;57.14
62126;BME280;69591;53.282;6.150;2023-06-10T05:13:27;101994.00;;;20.92;56.92
62126;BME280;69591;53.282;6.150;2023-06-10T05:14:29;101990.50;;;20.91;57.01
62126;BME280;69591;53.282;6.150;2023-06-10T05:15:32;101991.25;;;20.92;56.94
62126;BME280;69591;53.282;6.150;2023-06-10T05:16:33;101988.91;;;20.90;57.25
62126;BME280;69591;53.282;6.150;2023-06-10T05:17:35;101994.00;;;20.92;56.73
62126;BME280;69591;53.282;6.150;2023-06-10T05:18:36;101993.25;;;20.91;57.32
62126;BME280;69591;53.282;6.150;2023-06-10T05:19:38;101990.50;;;20.91;57.05
62126;BME280;69591;53.282;6.150;2023-06-10T05:20:39;101988.53;;;20.92;57.31
62126;BME280;69591;53.282;6.150;2023-06-10T05:21:41;101994.81;;;20.92;57.25
62126;BME280;69591;53.282;6.150;2023-06-10T05:22:42;101990.50;;;20.91;56.94
62126;BME280;69591;53.282;6.150;2023-06-10T05:23:44;101988.53;;;20.92;56.93
62126;BME280;69591;53.282;6.150;2023-06-10T05:24:46;101985.00;;;20.91;56.99
62126;BME280;69591;53.282;6.150;2023-06-10T05:25:47;101990.13;;;20.93;57.09
62126;BME280;69591;53.282;6.150;2023-06-10T05:26:49;101991.25;;;20.92;56.93